Time;durP1;ratioP1;P1;durP2;ratioP2;P2;SDS_P1;SDS_P2;PMS_P1;PMS_P2;Temp;Humidity;BMP_temperature;BMP_pressure;BME280_temperature;BME280_humidity;BME280_pressure;Samples;Min_cycle;Max_cycle;Signal;HPM_P1;HPM_P2
2023/05/10 05:01:17;;;;;;;2.35;0.55;;;13.80;99.90;;;;;;5940571;23;20023;31
2023/05/10 05:03:43;;;;;;;1.48;0.40;;;13.80;99.90;;;;;;4886226;29;20053;-69
2023/05/10 05:06:09;;;;;;;1.40;0.50;;;13.80;99.90;;;;;;4888593;29;20039;-69
2023/05/10 05:08:34;;;;;;;1.75;0.63;;;13.90;99.90;;;;;;4889314;29;20043;-69
2023/05/10 05:11:00;;;;;;;2.00;0.40;;;13.90;99.90;;;;;;4888848;29;20080;-69
2023/05/10 05:13:26;;;;;;;1.30;0.50;;;14.00;99.90;;;;;;4889220;29;20029;-68
2023/05/10 05:15:51;;;;;;;1.23;0.40;;;14.00;99.90;;;;;;4888764;29;20032;-70
2023/05/10 05:18:17;;;;;;;1.60;0.50;;;14.10;99.90;;;;;;4889395;29;20032;-69
2023/05/10 05:20:43;;;;;;;4.15;0.47;;;14.20;99.90;;;;;;4889555;29;20095;-69
2023/05/10 05:23:08;;;;;;;1.65;0.40;;;14.30;99.90;;;;;;4888719;29;20085;-69
2023/05/10 05:25:35;;;;;;;1.52;0.50;;;14.30;99.90;;;;;;4889146;29;20056;-70
2023/05/10 05:28:01;;;;;;;1.27;0.60;;;14.30;99.90;;;;;;4888528;29;20326;-69
2023/05/10 05:30:27;;;;;;;2.92;0.68;;;14.40;99.90;;;;;;4889297;29;20045;-69
2023/05/10 05:32:53;;;;;;;1.70;0.60;;;14.40;99.90;;;;;;4888682;29;20032;-69
2023/05/10 05:35:18;;;;;;;1.83;0.75;;;14.40;99.90;;;;;;4888882;29;20088;-70
2023/05/10 05:37:44;;;;;;;2.38;0.60;;;14.40;99.90;;;;;;4888843;29;20063;-75
2023/05/10 05:40:13;;;;;;;1.67;0.52;;;14.60;99.90;;;;;;4888502;29;20024;-69
2023/05/10 05:42:38;;;;;;;2.17;0.60;;;14.60;99.90;;;;;;4888986;29;20206;-69
2023/05/10 05:45:05;;;;;;;3.05;0.40;;;14.70;99.90;;;;;;4888376;29;20035;-70
2023/05/10 05:47:30;;;;;;;2.05;0.70;;;14.70;99.90;;;;;;4889101;29;20041;-70
2023/05/10 05:49:56;;;;;;;2.05;0.57;;;14.80;99.90;;;;;;4888263;29;20401;-69
2023/05/10 05:52:22;;;;;;;2.42;0.73;;;14.80;99.90;;;;;;4888644;29;20235;-69
2023/05/10 05:54:47;;;;;;;1.15;0.45;;;14.80;99.90;;;;;;4888832;29;20104;-69
2023/05/10 05:57:13;;;;;;;3.13;1.20;;;14.90;99.90;;;;;;4888363;29;20100;-70
2023/05/10 05:59:43;;;;;;;2.25;0.47;;;15.00;99.90;;;;;;4888986;29;20025;-70
2023/05/10 06:02:09;;;;;;;2.40;0.50;;;15.00;99.90;;;;;;4879586;29;20065;-71
2023/05/10 06:04:35;;;;;;;1.92;0.77;;;15.00;99.90;;;;;;4875727;29;20023;-70
2023/05/10 06:07:01;;;;;;;2.53;0.60;;;15.00;99.90;;;;;;4869874;29;20219;-69
2023/05/10 06:09:27;;;;;;;1.95;0.57;;;15.00;99.90;;;;;;4869875;29;20037;-69
2023/05/10 06:11:52;;;;;;;4.63;0.77;;;14.90;99.90;;;;;;4870366;29;20033;-69
2023/05/10 06:14:20;;;;;;;1.98;0.60;;;14.90;99.90;;;;;;4869859;29;20034;-69
2023/05/10 06:16:46;;;;;;;1.85;0.50;;;15.00;99.90;;;;;;4873956;29;20101;-70
2023/05/10 06:19:12;;;;;;;4.15;0.85;;;15.10;99.90;;;;;;4871286;29;20044;-70
2023/05/10 06:21:38;;;;;;;1.30;0.55;;;15.20;99.90;;;;;;4870038;29;20318;-71
2023/05/10 06:24:05;;;;;;;2.22;0.90;;;15.20;99.90;;;;;;4853411;29;20053;-72
2023/05/10 06:26:31;;;;;;;1.48;0.57;;;15.30;99.90;;;;;;4869722;29;20076;-68
2023/05/10 06:28:56;;;;;;;3.22;0.55;;;15.40;99.90;;;;;;4869396;29;20046;-69
2023/05/10 06:31:22;;;;;;;2.75;0.73;;;15.40;99.90;;;;;;4870085;29;20334;-70
2023/05/10 06:33:48;;;;;;;1.75;0.50;;;15.50;99.90;;;;;;4870134;29;20026;-68
2023/05/10 06:36:13;;;;;;;1.90;0.60;;;15.40;99.90;;;;;;4869104;29;20030;-69
2023/05/10 06:38:39;;;;;;;1.90;0.70;;;15.30;99.90;;;;;;4869761;29;20037;-70
2023/05/10 06:41:05;;;;;;;2.53;0.63;;;15.20;99.90;;;;;;4869506;29;20033;-70
2023/05/10 06:43:31;;;;;;;2.53;0.93;;;15.10;99.90;;;;;;4869661;29;20026;-70
2023/05/10 06:45:57;;;;;;;2.15;0.70;;;15.10;99.90;;;;;;4869019;29;20052;-70
2023/05/10 06:48:23;;;;;;;1.30;0.47;;;15.20;99.90;;;;;;4867250;29;20097;-69
2023/05/10 06:50:48;;;;;;;2.58;0.70;;;15.20;99.90;;;;;;4865764;29;20078;-69
2023/05/10 06:53:15;;;;;;;2.13;0.70;;;15.20;99.90;;;;;;4866731;29;20041;-70
2023/05/10 06:55:41;;;;;;;2.63;0.73;;;15.20;99.90;;;;;;4870323;29;20045;-71
2023/05/10 06:58:06;;;;;;;1.83;0.70;;;15.30;99.90;;;;;;4871612;29;20037;-71
2023/05/10 07:00:32;;;;;;;3.20;0.65;;;15.30;99.90;;;;;;4872970;29;20029;-72
2023/05/10 07:02:58;;;;;;;2.55;0.77;;;15.20;99.90;;;;;;4872895;29;20100;-71
2023/05/10 07:05:23;;;;;;;2.05;0.60;;;15.20;99.90;;;;;;4871907;29;20029;-71
2023/05/10 07:07:50;;;;;;;1.23;0.50;;;15.30;99.90;;;;;;4873120;29;20033;-71
2023/05/10 07:10:15;;;;;;;1.98;0.70;;;15.30;99.90;;;;;;4843181;29;20046;-69
2023/05/10 07:12:41;;;;;;;2.72;0.70;;;15.40;99.90;;;;;;4835992;29;20069;-69
2023/05/10 07:15:08;;;;;;;1.90;0.63;;;15.60;99.90;;;;;;4835699;29;20201;-70
2023/05/10 07:17:33;;;;;;;2.30;0.60;;;15.80;99.90;;;;;;4836396;29;20083;-70
2023/05/10 07:20:00;;;;;;;1.95;0.80;;;16.00;99.90;;;;;;4838054;29;20030;-70
2023/05/10 07:22:26;;;;;;;1.48;0.63;;;16.00;99.90;;;;;;4852150;29;20060;-70
2023/05/10 07:24:51;;;;;;;2.78;0.52;;;16.10;99.90;;;;;;4854371;29;20045;-70
2023/05/10 07:27:17;;;;;;;2.03;0.50;;;16.20;99.90;;;;;;4853925;29;20038;-70
2023/05/10 07:29:43;;;;;;;2.65;0.70;;;16.50;99.90;;;;;;4854124;29;20067;-70
2023/05/10 07:32:08;;;;;;;1.52;0.50;;;16.70;99.90;;;;;;4837098;29;20041;-72
2023/05/10 07:34:34;;;;;;;1.30;0.52;;;16.80;99.90;;;;;;4854165;29;20057;-70
2023/05/10 07:37:00;;;;;;;1.85;0.60;;;16.90;99.90;;;;;;4842034;29;20042;-72
2023/05/10 07:39:27;;;;;;;2.85;0.60;;;16.70;99.90;;;;;;4835605;29;20304;-70
2023/05/10 07:41:53;;;;;;;2.97;0.60;;;16.60;99.90;;;;;;4835912;29;20038;-70
2023/05/10 07:44:20;;;;;;;1.35;0.60;;;16.80;99.90;;;;;;4835061;29;20093;-70
2023/05/10 07:46:47;;;;;;;4.38;0.60;;;16.80;99.90;;;;;;4835294;29;20057;-71
2023/05/10 07:49:13;;;;;;;1.83;0.60;;;16.80;99.90;;;;;;4835294;29;20048;-71
2023/05/10 07:51:38;;;;;;;1.00;0.40;;;17.00;99.90;;;;;;4844813;29;20033;-71
2023/05/10 07:54:04;;;;;;;1.48;0.40;;;17.00;99.90;;;;;;4837509;29;20066;-71
2023/05/10 07:56:31;;;;;;;1.23;0.50;;;17.20;99.90;;;;;;4835348;29;20042;-71
2023/05/10 07:59:01;;;;;;;2.72;0.47;;;17.20;99.90;;;;;;4850468;29;20038;-71
2023/05/10 08:01:31;;;;;;;2.88;0.70;;;17.30;99.90;;;;;;4853262;29;20317;-72
2023/05/10 08:03:57;;;;;;;2.00;0.60;;;17.50;99.90;;;;;;4851664;29;20082;-72
2023/05/10 08:06:22;;;;;;;1.50;0.40;;;17.50;99.90;;;;;;4833864;29;20258;-72
2023/05/10 08:08:50;;;;;;;2.25;0.40;;;17.50;99.90;;;;;;4834960;29;20041;-72
2023/05/10 08:11:17;;;;;;;1.30;0.37;;;17.40;99.90;;;;;;4836375;29;20243;-72
2023/05/10 08:13:43;;;;;;;1.70;0.30;;;17.30;99.90;;;;;;4835246;29;20433;-73
2023/05/10 08:16:09;;;;;;;1.40;0.30;;;17.20;99.90;;;;;;4834768;29;20109;-73
2023/05/10 08:18:35;;;;;;;1.58;0.30;;;17.20;99.90;;;;;;4834961;29;20038;-72
2023/05/10 08:21:01;;;;;;;2.60;0.30;;;17.00;99.90;;;;;;4835051;29;20102;-79
2023/05/10 08:23:26;;;;;;;1.52;0.40;;;16.90;99.90;;;;;;4835103;29;20039;-73
2023/05/10 08:25:52;;;;;;;2.63;0.40;;;16.90;99.90;;;;;;4834971;29;20054;-73
2023/05/10 08:28:18;;;;;;;2.80;0.30;;;17.00;99.90;;;;;;4834464;29;20026;-72
2023/05/10 08:30:44;;;;;;;1.50;0.35;;;17.10;99.90;;;;;;4834983;29;20050;-72
2023/05/10 08:33:10;;;;;;;1.88;0.30;;;17.00;99.90;;;;;;4834571;29;20193;-72
2023/05/10 08:35:36;;;;;;;1.75;0.38;;;17.00;99.90;;;;;;4838910;29;20244;-73
2023/05/10 08:38:02;;;;;;;1.05;0.40;;;17.10;99.90;;;;;;4852558;29;20034;-74
2023/05/10 08:40:28;;;;;;;5.80;0.60;;;17.30;99.90;;;;;;4852819;29;20059;-72
2023/05/10 08:43:01;;;;;;;1.70;0.60;;;17.30;99.90;;;;;;4852736;29;20045;-72
2023/05/10 08:45:31;;;;;;;0.68;0.32;;;17.20;99.90;;;;;;4852928;29;20322;-72
2023/05/10 08:47:59;;;;;;;0.90;0.30;;;17.20;99.90;;;;;;4853135;29;20101;-72
2023/05/10 08:50:25;;;;;;;1.27;0.32;;;17.40;99.90;;;;;;4852161;29;20034;-72
2023/05/10 08:52:55;;;;;;;2.55;0.40;;;17.50;99.90;;;;;;4852644;29;20069;-73
2023/05/10 08:55:23;;;;;;;1.50;0.57;;;17.60;99.90;;;;;;4852148;29;20037;-72
2023/05/10 08:57:49;;;;;;;4.47;0.63;;;17.80;99.90;;;;;;4852886;29;20048;-72
2023/05/10 09:00:16;;;;;;;1.58;0.32;;;18.10;99.90;;;;;;4850102;29;20215;-72
2023/05/10 09:02:43;;;;;;;1.13;0.30;;;18.30;99.90;;;;;;4852069;29;20065;-73
2023/05/10 09:05:10;;;;;;;0.80;0.20;;;18.40;99.90;;;;;;4842021;29;20038;-73
2023/05/10 09:07:36;;;;;;;1.08;0.22;;;18.40;99.90;;;;;;4834647;29;20054;-73
2023/05/10 09:10:03;;;;;;;0.93;0.20;;;18.50;99.90;;;;;;4834733;29;20067;-74
2023/05/10 09:12:29;;;;;;;0.90;0.30;;;18.40;99.90;;;;;;4840599;29;20044;-73
2023/05/10 09:14:57;;;;;;;1.10;0.13;;;18.60;99.90;;;;;;4834755;29;20212;-73
2023/05/10 09:17:24;;;;;;;0.90;0.30;;;18.90;99.90;;;;;;4842651;29;20069;-72
2023/05/10 09:19:56;;;;;;;3.13;0.20;;;19.00;99.40;;;;;;4835769;29;20051;-72
2023/05/10 09:22:22;;;;;;;1.08;0.28;;;19.00;98.60;;;;;;4833654;29;20652;-72
2023/05/10 09:25:02;;;;;;;0.60;0.20;;;19.00;98.60;;;;;;4834271;29;20053;-72
2023/05/10 09:27:28;;;;;;;0.80;0.30;;;18.70;98.70;;;;;;4834090;29;20046;-72
2023/05/10 09:29:54;;;;;;;2.30;0.55;;;18.80;98.50;;;;;;4833921;29;20046;-72
2023/05/10 09:32:20;;;;;;;0.85;0.20;;;18.20;97.80;;;;;;4833738;29;20028;-72
2023/05/10 09:34:49;;;;;;;1.05;0.15;;;17.90;98.60;;;;;;4840337;29;20043;-72
2023/05/10 09:37:15;;;;;;;0.88;0.20;;;17.60;99.30;;;;;;4849674;29;20049;-72
2023/05/10 09:39:41;;;;;;;1.83;0.20;;;17.80;98.90;;;;;;4851808;29;20045;-72
2023/05/10 09:42:08;;;;;;;0.85;0.40;;;18.00;98.90;;;;;;4851510;29;20046;-73
2023/05/10 09:44:35;;;;;;;0.60;0.20;;;18.30;98.50;;;;;;4852195;29;20042;-72
2023/05/10 09:47:02;;;;;;;2.97;0.20;;;18.60;98.00;;;;;;4851875;29;20053;-72
2023/05/10 09:49:28;;;;;;;0.95;0.30;;;18.90;97.50;;;;;;4851657;29;20034;-72
2023/05/10 09:52:04;;;;;;;0.40;0.10;;;19.20;97.20;;;;;;4851867;29;20045;-73
2023/05/10 09:54:31;;;;;;;1.45;0.30;;;19.30;96.40;;;;;;4851709;29;20316;-72
2023/05/10 09:56:56;;;;;;;1.75;0.30;;;19.40;96.70;;;;;;4854340;29;20049;-73
2023/05/10 09:59:25;;;;;;;3.47;0.30;;;19.70;96.20;;;;;;4869610;29;20085;-73
2023/05/10 10:01:52;;;;;;;1.15;0.30;;;19.50;96.30;;;;;;4839051;29;20125;-73
2023/05/10 10:04:20;;;;;;;0.50;0.10;;;19.70;95.60;;;;;;4833085;29;20097;-72
2023/05/10 10:06:46;;;;;;;0.80;0.20;;;19.50;95.50;;;;;;4833440;29;20042;-72
2023/05/10 10:09:13;;;;;;;1.63;0.20;;;19.20;95.60;;;;;;4835490;29;20208;-73
2023/05/10 10:11:41;;;;;;;0.93;0.20;;;19.00;96.10;;;;;;4840083;29;20050;-72
2023/05/10 10:14:06;;;;;;;0.98;0.20;;;18.90;96.30;;;;;;4833274;29;20042;-72
2023/05/10 10:16:32;;;;;;;2.03;0.40;;;18.40;97.00;;;;;;4833380;29;20358;-72
2023/05/10 10:18:58;;;;;;;1.55;0.25;;;18.30;97.60;;;;;;4833428;29;20049;-72
2023/05/10 10:21:24;;;;;;;1.30;0.20;;;18.30;98.30;;;;;;4832927;29;20301;-72
2023/05/10 10:23:51;;;;;;;0.85;0.30;;;18.40;99.10;;;;;;4833676;29;20030;-72
2023/05/10 10:26:18;;;;;;;0.98;0.30;;;18.60;97.60;;;;;;4832765;29;20846;-72
2023/05/10 10:29:16;;;;;;;1.25;0.28;;;18.80;97.70;;;;;;4832975;29;20038;-72
2023/05/10 10:32:00;;;;;;;1.23;0.28;;;19.10;96.60;;;;;;4842436;29;20053;-72
2023/05/10 10:34:28;;;;;;;0.93;0.38;;;19.40;96.10;;;;;;4854730;29;20330;-73
2023/05/10 10:36:55;;;;;;;0.88;0.22;;;19.50;96.00;;;;;;4850858;29;20050;-72
2023/05/10 10:39:21;;;;;;;1.65;0.13;;;19.90;95.60;;;;;;4854555;29;20038;-72
2023/05/10 10:41:54;;;;;;;0.90;0.20;;;20.00;94.60;;;;;;4855189;29;20049;-71
2023/05/10 10:44:27;;;;;;;2.97;0.20;;;20.00;94.70;;;;;;4854300;29;20227;-74
2023/05/10 10:47:12;;;;;;;2.35;0.20;;;20.20;94.90;;;;;;4854939;29;20129;-71
2023/05/10 10:49:44;;;;;;;1.38;0.40;;;20.30;94.10;;;;;;4854869;29;20097;-70
2023/05/10 10:52:35;;;;;;;3.25;0.40;;;20.00;95.00;;;;;;4854405;29;20376;-71
2023/05/10 10:55:24;;;;;;;2.35;0.60;;;19.70;96.20;;;;;;4855024;29;20037;-70
2023/05/10 10:58:00;;;;;;;1.45;0.45;;;19.60;96.30;;;;;;4854378;29;20097;-70
2023/05/10 11:00:26;;;;;;;1.08;0.30;;;19.40;96.00;;;;;;4854523;29;20088;-69
2023/05/10 11:02:56;;;;;;;1.23;0.20;;;19.40;95.20;;;;;;4840493;29;20059;-71
2023/05/10 11:05:30;;;;;;;1.13;0.30;;;19.20;95.70;;;;;;4835825;29;20045;-71
2023/05/10 11:08:00;;;;;;;2.20;0.30;;;18.90;94.20;;;;;;4838491;29;20037;-72
2023/05/10 11:10:27;;;;;;;1.05;0.20;;;18.80;94.20;;;;;;4837397;29;20026;-71
2023/05/10 11:13:00;;;;;;;1.50;0.35;;;18.90;94.30;;;;;;4839022;29;20129;-71
2023/05/10 11:15:33;;;;;;;2.97;0.40;;;18.60;92.90;;;;;;4835559;29;20038;-70
2023/05/10 11:17:59;;;;;;;0.95;0.40;;;18.10;93.70;;;;;;4835753;29;20038;-71
2023/05/10 11:20:32;;;;;;;1.88;0.40;;;17.90;93.50;;;;;;4835339;29;20062;-70
2023/05/10 11:23:12;;;;;;;1.30;0.30;;;17.90;93.60;;;;;;4835728;29;20030;-70
2023/05/10 11:25:45;;;;;;;1.35;0.40;;;17.80;94.00;;;;;;4835853;29;20038;-71
2023/05/10 11:28:12;;;;;;;2.47;0.50;;;17.70;94.00;;;;;;4835524;29;20034;-71
2023/05/10 11:30:42;;;;;;;2.42;0.50;;;17.80;94.50;;;;;;4835577;29;20205;-71
2023/05/10 11:33:09;;;;;;;1.48;0.38;;;17.80;94.70;;;;;;4835939;29;20060;-70
2023/05/10 11:35:39;;;;;;;1.50;0.40;;;17.70;94.90;;;;;;4839756;29;20014;-70
2023/05/10 11:38:12;;;;;;;1.20;0.40;;;17.80;94.80;;;;;;4854016;29;20049;-70
2023/05/10 11:40:39;;;;;;;4.13;0.40;;;18.00;94.80;;;;;;4853774;29;20033;-70
2023/05/10 11:43:05;;;;;;;2.00;0.30;;;18.50;94.70;;;;;;4853840;29;20299;-70
2023/05/10 11:45:35;;;;;;;1.98;0.30;;;18.50;94.40;;;;;;4853472;29;20033;-71
2023/05/10 11:48:01;;;;;;;1.38;0.32;;;18.70;93.80;;;;;;4853505;29;20045;-70
2023/05/10 11:50:27;;;;;;;0.70;0.20;;;19.20;93.30;;;;;;4853184;29;20049;-70
2023/05/10 11:52:55;;;;;;;0.75;0.20;;;19.10;92.90;;;;;;4853789;29;20092;-71
2023/05/10 11:55:21;;;;;;;0.53;0.30;;;18.80;92.00;;;;;;4853098;29;20340;-70
2023/05/10 11:57:47;;;;;;;0.85;0.20;;;18.50;92.70;;;;;;4862749;29;20479;-70
2023/05/10 12:00:13;;;;;;;1.60;0.20;;;18.30;93.30;;;;;;4859779;29;20030;-70
2023/05/10 12:02:41;;;;;;;1.13;0.30;;;18.20;93.90;;;;;;4836117;29;20057;-70
2023/05/10 12:05:08;;;;;;;1.10;0.30;;;18.10;93.50;;;;;;4835460;29;20087;-70
2023/05/10 12:07:33;;;;;;;1.50;0.47;;;17.90;94.00;;;;;;4835797;29;20194;-70
2023/05/10 12:10:14;;;;;;;1.63;0.30;;;17.90;94.20;;;;;;4836456;29;20030;-70
2023/05/10 12:12:50;;;;;;;2.58;0.57;;;18.00;94.20;;;;;;4847572;29;20220;-70
2023/05/10 12:15:21;;;;;;;1.05;0.32;;;18.00;93.70;;;;;;4845923;29;20277;-70
2023/05/10 12:17:48;;;;;;;2.35;0.50;;;17.80;94.00;;;;;;4835284;29;20376;-69
2023/05/10 12:20:19;;;;;;;3.42;0.50;;;17.90;93.80;;;;;;4834290;29;20197;-70
2023/05/10 12:22:57;;;;;;;2.35;0.60;;;17.90;94.00;;;;;;4835071;29;20093;-71
2023/05/10 12:25:24;;;;;;;1.10;0.40;;;17.90;94.10;;;;;;4834629;29;20038;-71
2023/05/10 12:27:55;;;;;;;2.40;0.32;;;17.90;93.90;;;;;;4835102;29;20065;-71
2023/05/10 12:30:25;;;;;;;1.40;0.40;;;18.00;94.10;;;;;;4834591;29;20026;-71
2023/05/10 12:32:52;;;;;;;3.05;0.40;;;18.40;93.90;;;;;;4834804;29;20046;-71
2023/05/10 12:35:21;;;;;;;1.85;0.32;;;18.30;93.80;;;;;;4842488;29;20048;-71
2023/05/10 12:37:48;;;;;;;1.80;0.30;;;18.80;93.60;;;;;;4853333;29;20033;-69
2023/05/10 12:40:14;;;;;;;2.30;0.30;;;18.90;93.20;;;;;;4852909;29;20038;-69
2023/05/10 12:42:40;;;;;;;2.58;0.43;;;19.00;93.20;;;;;;4853099;29;20053;-70
2023/05/10 12:45:07;;;;;;;1.17;0.40;;;19.00;91.50;;;;;;4853154;29;20073;-70
2023/05/10 12:47:33;;;;;;;4.10;0.75;;;19.00;91.10;;;;;;4852335;29;20034;-70
2023/05/10 12:50:00;;;;;;;2.45;0.40;;;19.00;90.70;;;;;;4852958;29;20049;-70
2023/05/10 12:52:26;;;;;;;1.45;0.40;;;18.80;90.40;;;;;;4852286;29;20053;-69
2023/05/10 12:54:52;;;;;;;2.38;0.50;;;18.50;90.70;;;;;;4852504;29;20049;-70
2023/05/10 12:57:19;;;;;;;4.57;0.50;;;18.60;91.00;;;;;;4852200;29;20042;-70
2023/05/10 12:59:45;;;;;;;2.70;0.50;;;18.70;90.80;;;;;;4852553;29;20174;-70
2023/05/10 13:02:11;;;;;;;2.67;0.40;;;18.40;91.20;;;;;;4843915;29;20352;-70
2023/05/10 13:04:39;;;;;;;2.15;0.52;;;18.30;91.50;;;;;;4833680;29;20038;-70
2023/05/10 13:07:09;;;;;;;1.60;0.30;;;18.00;91.90;;;;;;4834208;29;20046;-71
2023/05/10 13:09:35;;;;;;;3.10;0.50;;;18.00;92.30;;;;;;4836258;29;20087;-72
2023/05/10 13:12:00;;;;;;;1.83;0.50;;;17.90;92.90;;;;;;4840562;29;20354;-71
2023/05/10 13:14:26;;;;;;;2.85;0.57;;;17.70;92.80;;;;;;4833771;29;20046;-71
2023/05/10 13:16:52;;;;;;;1.73;0.43;;;17.60;93.20;;;;;;4834323;29;20057;-71
2023/05/10 13:19:18;;;;;;;1.70;0.50;;;17.50;93.20;;;;;;4833676;29;20026;-71
2023/05/10 13:21:44;;;;;;;1.98;0.45;;;17.50;93.70;;;;;;4834368;29;20042;-71
2023/05/10 13:24:13;;;;;;;4.97;0.65;;;17.50;94.10;;;;;;4834429;29;20038;-71
2023/05/10 13:26:39;;;;;;;2.80;0.65;;;17.60;93.60;;;;;;4833655;29;20030;-71
2023/05/10 13:29:06;;;;;;;2.88;0.68;;;17.80;94.10;;;;;;4834328;29;20048;-71
2023/05/10 13:31:31;;;;;;;1.88;0.40;;;18.10;93.50;;;;;;4833560;29;20058;-71
2023/05/10 13:33:57;;;;;;;1.92;0.30;;;18.10;91.90;;;;;;4834000;29;20038;-70
2023/05/10 13:36:23;;;;;;;1.35;0.45;;;18.10;91.80;;;;;;4843085;29;20055;-71
2023/05/10 13:38:48;;;;;;;2.35;0.50;;;18.30;91.90;;;;;;4851805;29;20022;-71
2023/05/10 13:41:14;;;;;;;1.48;0.40;;;18.90;91.50;;;;;;4852377;29;20216;-71
2023/05/10 13:43:40;;;;;;;3.00;0.47;;;19.10;91.40;;;;;;4851411;29;20033;-71
2023/05/10 13:46:05;;;;;;;2.85;0.20;;;19.30;91.20;;;;;;4851849;29;20256;-70
2023/05/10 13:48:31;;;;;;;3.58;0.50;;;19.50;90.60;;;;;;4851303;29;20033;-71
2023/05/10 13:50:57;;;;;;;2.15;0.30;;;19.60;90.10;;;;;;4851949;29;20338;-71
2023/05/10 13:53:22;;;;;;;3.67;0.50;;;19.60;90.00;;;;;;4851365;29;20078;-71
2023/05/10 13:55:48;;;;;;;2.83;0.43;;;19.40;90.10;;;;;;4851823;29;20048;-71
2023/05/10 13:58:14;;;;;;;1.33;0.28;;;19.30;90.80;;;;;;4864583;29;20038;-71
2023/05/10 14:00:40;;;;;;;2.47;0.57;;;19.10;90.60;;;;;;4850908;29;20026;-71
2023/05/10 14:03:06;;;;;;;1.50;0.50;;;18.90;90.80;;;;;;4834748;29;20085;-71
2023/05/10 14:05:32;;;;;;;2.90;0.50;;;18.80;91.50;;;;;;4832166;29;20284;-71
2023/05/10 14:07:58;;;;;;;2.83;0.40;;;18.70;91.70;;;;;;4835754;29;20038;-70
2023/05/10 14:10:23;;;;;;;1.10;0.30;;;18.70;91.20;;;;;;4834589;29;20067;-71
2023/05/10 14:12:50;;;;;;;1.70;0.30;;;18.70;90.70;;;;;;4837855;29;20373;-71
2023/05/10 14:15:16;;;;;;;1.08;0.32;;;19.00;90.70;;;;;;4833582;29;20149;-71
2023/05/10 14:17:41;;;;;;;1.60;0.45;;;19.30;90.50;;;;;;4833013;29;20143;-71
2023/05/10 14:20:08;;;;;;;1.00;0.30;;;19.20;86.30;;;;;;4833199;29;20070;-71
2023/05/10 14:22:34;;;;;;;1.83;0.55;;;19.30;86.10;;;;;;4832920;29;20049;-70
2023/05/10 14:25:00;;;;;;;2.67;0.50;;;19.50;88.00;;;;;;4833800;29;20086;-71
2023/05/10 14:27:26;;;;;;;2.35;0.30;;;19.60;86.70;;;;;;4832975;29;20224;-71
2023/05/10 14:29:53;;;;;;;2.70;0.30;;;19.50;84.50;;;;;;4833250;29;20040;-71
2023/05/10 14:32:18;;;;;;;2.38;0.40;;;19.80;83.40;;;;;;4833114;29;20026;-71
2023/05/10 14:34:44;;;;;;;1.95;0.30;;;19.90;83.80;;;;;;4833325;29;20041;-71
2023/05/10 14:37:11;;;;;;;1.77;0.20;;;19.80;83.70;;;;;;4849102;29;20037;-71
2023/05/10 14:39:37;;;;;;;1.05;0.20;;;20.20;83.80;;;;;;4851104;29;20026;-73
2023/05/10 14:42:03;;;;;;;1.75;0.40;;;20.00;83.40;;;;;;4835305;29;20037;-71
2023/05/10 14:44:29;;;;;;;1.02;0.20;;;19.70;84.20;;;;;;4851190;29;20042;-71
2023/05/10 14:46:55;;;;;;;1.55;0.40;;;19.80;84.00;;;;;;4851557;29;20296;-71
2023/05/10 14:49:22;;;;;;;4.38;0.57;;;19.80;85.40;;;;;;4851022;29;20101;-71
2023/05/10 14:51:48;;;;;;;2.28;0.40;;;19.70;84.80;;;;;;4851525;29;20342;-73
2023/05/10 14:54:14;;;;;;;1.85;0.40;;;19.70;84.00;;;;;;4835092;29;20038;-73
2023/05/10 14:56:41;;;;;;;3.47;0.35;;;19.60;85.40;;;;;;4850993;29;20334;-74
2023/05/10 14:59:07;;;;;;;1.60;0.30;;;19.80;85.20;;;;;;4869723;29;20033;-76
2023/05/10 15:01:35;;;;;;;1.83;0.40;;;19.70;83.90;;;;;;4850459;29;20115;-73
2023/05/10 15:04:00;;;;;;;1.92;0.30;;;19.60;84.80;;;;;;4839748;29;20037;-73
2023/05/10 15:06:34;;;;;;;1.30;0.30;;;19.50;84.70;;;;;;4844373;29;20322;-73
2023/05/10 15:09:00;;;;;;;1.80;0.40;;;19.70;85.00;;;;;;4841358;29;20046;-73
2023/05/10 15:11:27;;;;;;;3.10;0.40;;;19.80;84.60;;;;;;4839494;29;20182;-73
2023/05/10 15:13:53;;;;;;;1.83;0.50;;;20.00;85.10;;;;;;4832810;29;20389;-74
2023/05/10 15:16:19;;;;;;;1.77;0.40;;;20.00;84.40;;;;;;4834600;29;20086;-73
2023/05/10 15:18:45;;;;;;;2.90;0.50;;;19.90;84.70;;;;;;4847823;29;20030;-73
2023/05/10 15:21:11;;;;;;;1.50;0.30;;;19.80;84.70;;;;;;4837177;29;20147;-73
2023/05/10 15:23:37;;;;;;;1.80;0.30;;;19.80;84.30;;;;;;4835702;29;20101;-73
2023/05/10 15:26:03;;;;;;;2.50;0.30;;;19.40;85.10;;;;;;4835848;29;20045;-73
2023/05/10 15:28:29;;;;;;;1.73;0.40;;;19.50;86.20;;;;;;4835314;29;20039;-72
2023/05/10 15:30:55;;;;;;;2.90;0.50;;;19.60;86.90;;;;;;4835885;29;20060;-73
2023/05/10 15:33:22;;;;;;;2.22;0.30;;;19.60;85.40;;;;;;4835786;29;20045;-75
2023/05/10 15:35:47;;;;;;;2.45;0.57;;;19.60;85.70;;;;;;4846773;29;20316;-76
2023/05/10 15:38:13;;;;;;;2.42;0.70;;;19.60;86.30;;;;;;4854078;29;20058;-74
2023/05/10 15:40:39;;;;;;;2.72;0.60;;;19.70;86.90;;;;;;4853537;29;20319;-75
2023/05/10 15:43:07;;;;;;;2.75;0.70;;;19.80;86.80;;;;;;4853568;29;20034;-75
2023/05/10 15:45:33;;;;;;;;;;;19.80;84.70;;;;;;4854054;29;20021;-76
2023/05/10 15:47:59;;;;;;;1.80;0.20;;;19.70;85.40;;;;;;4854060;29;20076;-75
2023/05/10 15:50:25;;;;;;;1.33;0.40;;;19.80;85.10;;;;;;4853686;29;20037;-75
2023/05/10 15:52:50;;;;;;;2.60;0.40;;;20.10;85.70;;;;;;4853760;29;20225;-73
2023/05/10 15:55:16;;;;;;;1.35;0.30;;;20.20;85.50;;;;;;4853676;29;20041;-73
2023/05/10 15:57:43;;;;;;;0.95;0.20;;;20.40;85.60;;;;;;4861456;29;20030;-74
2023/05/10 16:00:10;;;;;;;2.30;0.35;;;20.30;85.30;;;;;;4860295;29;20048;-74
2023/05/10 16:02:41;;;;;;;1.83;0.30;;;20.20;85.80;;;;;;4845102;29;20278;-75
2023/05/10 16:05:08;;;;;;;;;;;20.30;84.40;;;;;;4842395;29;20313;-72
2023/05/10 16:07:34;;;;;;;3.65;0.32;;;20.20;86.00;;;;;;4837068;29;19996;-73
2023/05/10 16:10:05;;;;;;;1.02;0.22;;;20.10;85.40;;;;;;4853480;29;20038;-74
2023/05/10 16:12:31;;;;;;;0.70;0.20;;;20.00;83.90;;;;;;4849344;29;20270;-72
2023/05/10 16:14:56;;;;;;;1.40;0.20;;;19.90;82.60;;;;;;4835824;29;20030;-71
2023/05/10 16:17:22;;;;;;;1.58;0.40;;;19.60;83.70;;;;;;4844713;29;20038;-73
2023/05/10 16:19:48;;;;;;;2.58;0.75;;;19.60;84.80;;;;;;4835113;29;20359;-72
2023/05/10 16:22:14;;;;;;;1.05;0.20;;;19.30;84.50;;;;;;4835194;29;20039;-74
2023/05/10 16:24:39;;;;;;;1.38;0.40;;;19.30;84.90;;;;;;4834388;29;20046;-73
2023/05/10 16:27:06;;;;;;;2.72;0.40;;;19.20;85.70;;;;;;4834745;29;20110;-73
2023/05/10 16:29:31;;;;;;;1.33;0.30;;;19.30;88.00;;;;;;4834051;29;20035;-73
2023/05/10 16:31:57;;;;;;;1.35;0.40;;;19.10;85.00;;;;;;4835130;29;20066;-73
2023/05/10 16:34:23;;;;;;;1.13;0.30;;;19.10;85.20;;;;;;4841970;29;20062;-74
2023/05/10 16:36:50;;;;;;;0.95;0.25;;;19.20;86.20;;;;;;4837488;29;20050;-72
2023/05/10 16:39:16;;;;;;;1.15;0.17;;;19.40;83.90;;;;;;4834545;29;20073;-75
2023/05/10 16:41:41;;;;;;;1.85;0.38;;;19.20;83.50;;;;;;4834403;29;20305;-73
2023/05/10 16:44:07;;;;;;;2.10;0.35;;;19.00;84.10;;;;;;4834558;29;20075;-72
2023/05/10 16:46:33;;;;;;;1.38;0.40;;;18.90;85.70;;;;;;4834161;29;20159;-74
2023/05/10 16:48:59;;;;;;;1.05;0.38;;;18.80;87.10;;;;;;4834682;29;20037;-76
2023/05/10 16:51:25;;;;;;;0.98;0.30;;;18.70;86.80;;;;;;4834986;29;20224;-73
2023/05/10 16:53:52;;;;;;;1.77;0.30;;;18.60;86.90;;;;;;4834278;29;20344;-74
2023/05/10 16:56:17;;;;;;;2.03;0.70;;;18.50;86.60;;;;;;4834645;29;20046;-74
2023/05/10 16:58:43;;;;;;;1.13;0.30;;;18.40;87.50;;;;;;4838323;29;20045;-72
2023/05/10 17:01:09;;;;;;;1.25;0.20;;;18.30;87.30;;;;;;4851054;29;20221;-71
2023/05/10 17:03:35;;;;;;;2.65;0.30;;;18.10;87.70;;;;;;4842113;29;20046;-71
2023/05/10 17:06:01;;;;;;;0.93;0.20;;;18.00;87.20;;;;;;4834400;29;20043;-70
2023/05/10 17:08:26;;;;;;;2.75;0.52;;;17.80;87.20;;;;;;4844292;29;20308;-70
2023/05/10 17:10:52;;;;;;;1.52;0.45;;;17.70;88.90;;;;;;4837272;29;20393;-70
2023/05/10 17:13:18;;;;;;;1.52;0.60;;;17.50;88.90;;;;;;4834551;29;20045;-71
2023/05/10 17:15:46;;;;;;;2.85;0.80;;;17.40;89.60;;;;;;4834020;29;20062;-69
2023/05/10 17:18:11;;;;;;;1.83;0.55;;;17.30;90.30;;;;;;4834437;29;20053;-70
2023/05/10 17:20:37;;;;;;;1.65;0.50;;;17.20;90.20;;;;;;4833597;29;20101;-70
2023/05/10 17:23:03;;;;;;;1.65;0.47;;;17.20;90.20;;;;;;4834510;29;20075;-70
2023/05/10 17:25:28;;;;;;;1.02;0.30;;;17.10;90.20;;;;;;4833976;29;20224;-71
2023/05/10 17:27:54;;;;;;;1.75;0.20;;;17.00;90.00;;;;;;4833904;29;20034;-69
2023/05/10 17:30:25;;;;;;;0.77;0.20;;;17.00;90.40;;;;;;4834155;29;20042;-71
2023/05/10 17:32:52;;;;;;;0.85;0.32;;;17.00;90.60;;;;;;4833544;29;20383;-70
2023/05/10 17:35:19;;;;;;;1.85;0.40;;;17.00;91.80;;;;;;4835805;29;20043;-70
2023/05/10 17:37:45;;;;;;;1.95;0.32;;;17.10;90.70;;;;;;4834632;29;20079;-70
2023/05/10 17:40:11;;;;;;;2.00;0.30;;;17.10;90.80;;;;;;4833853;29;20042;-70
2023/05/10 17:42:37;;;;;;;1.80;0.40;;;17.10;90.80;;;;;;4833619;29;20057;-70
2023/05/10 17:45:03;;;;;;;1.40;0.30;;;17.10;91.40;;;;;;4834157;29;20275;-71
2023/05/10 17:47:28;;;;;;;2.60;0.43;;;16.90;92.40;;;;;;4833938;29;20050;-71